createdAt,value
2022-12-12T00:01:27.115Z,78.78
2022-12-12T00:03:54.421Z,78.42
2022-12-12T00:06:22.563Z,78.97
2022-12-12T00:08:49.920Z,78.60
2022-12-12T00:11:18.572Z,78.08
2022-12-12T00:13:45.450Z,77.65
2022-12-12T00:16:12.873Z,77.24
2022-12-12T00:18:40.673Z,76.71
2022-12-12T00:21:15.044Z,76.69
2022-12-12T00:23:42.157Z,77.12
2022-12-12T00:26:19.312Z,77.57
2022-12-12T00:28:46.538Z,78.37
2022-12-12T00:31:13.572Z,78.58
2022-12-12T00:33:40.404Z,77.95
2022-12-12T00:36:07.701Z,78.00
2022-12-12T00:38:34.711Z,78.53
2022-12-12T00:41:02.331Z,78.32
2022-12-12T00:43:29.122Z,77.96
2022-12-12T00:46:02.309Z,77.96
2022-12-12T00:48:29.640Z,77.92
2022-12-12T00:50:57.371Z,77.98
2022-12-12T00:53:25.003Z,78.08
2022-12-12T00:55:59.204Z,78.11
2022-12-12T00:58:26.802Z,78.28
2022-12-12T01:00:54.122Z,78.00
2022-12-12T01:03:21.811Z,77.79
2022-12-12T01:05:48.822Z,78.05
2022-12-12T01:08:15.626Z,77.97
2022-12-12T01:10:42.564Z,78.23
2022-12-12T01:13:09.278Z,78.50
2022-12-12T01:15:36.050Z,77.93
2022-12-12T01:18:02.845Z,78.23
2022-12-12T01:20:29.724Z,78.42
2022-12-12T01:22:56.916Z,77.69
2022-12-12T01:25:23.777Z,77.77
2022-12-12T01:27:50.827Z,77.84
2022-12-12T01:30:21.836Z,77.38
2022-12-12T01:32:49.027Z,77.66
2022-12-12T01:35:16.007Z,77.80
2022-12-12T01:37:43.065Z,77.89
2022-12-12T01:40:20.344Z,77.46
2022-12-12T01:42:47.889Z,77.00
2022-12-12T01:45:58.421Z,78.30
2022-12-12T01:48:46.295Z,78.34
2022-12-12T01:51:21.034Z,78.17
2022-12-12T01:53:50.889Z,77.73
2022-12-12T01:56:20.785Z,77.47
2022-12-12T01:59:09.432Z,77.38
2022-12-12T02:01:37.149Z,77.41
2022-12-12T02:04:05.581Z,77.17
2022-12-12T02:06:32.405Z,76.93
2022-12-12T02:09:05.678Z,77.54
2022-12-12T02:11:35.341Z,77.49
2022-12-12T02:14:03.233Z,78.14
2022-12-12T02:17:05.061Z,77.85
2022-12-12T02:20:02.241Z,77.51
2022-12-12T02:23:09.057Z,77.02
2022-12-12T02:26:09.600Z,77.14
2022-12-12T02:28:57.685Z,77.40
2022-12-12T02:32:06.225Z,77.24
2022-12-12T02:35:17.993Z,77.12
2022-12-12T02:37:58.626Z,78.06
2022-12-12T02:40:35.943Z,78.10
2022-12-12T02:43:36.485Z,78.01
2022-12-12T02:46:13.565Z,77.11
2022-12-12T02:49:06.030Z,76.65
2022-12-12T02:51:34.620Z,76.84
2022-12-12T02:54:14.313Z,76.65
2022-12-12T02:56:58.177Z,77.03
2022-12-12T02:59:56.155Z,76.35
2022-12-12T03:03:37.525Z,77.39
2022-12-12T03:06:51.564Z,76.57
2022-12-12T03:09:56.653Z,76.82
2022-12-12T03:12:51.638Z,77.37
2022-12-12T03:15:27.722Z,77.63
2022-12-12T03:18:10.369Z,76.90
2022-12-12T03:20:50.805Z,77.33
2022-12-12T03:23:34.934Z,77.10
2022-12-12T03:26:07.317Z,77.69
2022-12-12T03:28:45.694Z,77.90
2022-12-12T03:31:15.617Z,77.78
2022-12-12T03:33:52.078Z,77.58
2022-12-12T03:37:17.247Z,77.35
2022-12-12T03:39:54.469Z,77.53
2022-12-12T03:42:46.653Z,77.60
2022-12-12T03:45:46.120Z,78.03
2022-12-12T03:48:27.101Z,77.73
2022-12-12T03:51:05.821Z,77.04
2022-12-12T03:53:40.045Z,76.34
2022-12-12T03:56:45.713Z,76.82
2022-12-12T03:59:27.616Z,77.25
2022-12-12T04:02:15.793Z,77.04
2022-12-12T04:04:56.949Z,76.95
2022-12-12T04:07:33.480Z,77.31
2022-12-12T04:10:19.204Z,77.08
2022-12-12T04:13:20.994Z,76.94
2022-12-12T04:15:57.994Z,77.28
2022-12-12T04:18:52.378Z,77.44
2022-12-12T04:21:55.062Z,77.62
2022-12-12T04:24:59.046Z,78.07
2022-12-12T04:27:43.862Z,78.48
2022-12-12T04:30:14.673Z,79.15
2022-12-12T04:33:02.385Z,78.90
2022-12-12T04:35:41.875Z,78.95
2022-12-12T04:38:21.454Z,79.06
2022-12-12T04:40:54.677Z,79.51
2022-12-12T04:43:29.127Z,80.38
2022-12-12T04:46:00.513Z,81.33
2022-12-12T04:48:38.981Z,81.41
2022-12-12T04:51:10.698Z,81.76
2022-12-12T04:53:48.278Z,82.00
2022-12-12T04:56:20.310Z,81.91
2022-12-12T04:58:47.071Z,81.85
2022-12-12T05:01:29.274Z,82.02
2022-12-12T05:03:58.680Z,81.62
2022-12-12T05:06:46.456Z,82.45
2022-12-12T05:09:16.771Z,82.61
2022-12-12T05:11:43.940Z,82.37
2022-12-12T05:14:11.798Z,82.83
2022-12-12T05:16:45.320Z,82.11
2022-12-12T05:19:12.141Z,81.67
2022-12-12T05:21:38.914Z,81.69
2022-12-12T05:24:06.076Z,80.95
2022-12-12T05:26:35.584Z,80.55
2022-12-12T05:29:07.483Z,80.49
2022-12-12T05:31:35.097Z,80.37
2022-12-12T05:34:02.203Z,80.60
2022-12-12T05:36:29.086Z,79.90
2022-12-12T05:38:55.872Z,79.89
2022-12-12T05:41:22.828Z,79.59
2022-12-12T05:43:49.614Z,79.27
2022-12-12T05:46:16.426Z,79.30
2022-12-12T05:48:44.548Z,79.17
2022-12-12T05:51:11.281Z,78.80
2022-12-12T05:53:42.882Z,79.28
2022-12-12T05:56:11.611Z,79.28
2022-12-12T05:58:39.674Z,78.88
2022-12-12T06:01:07.313Z,78.66
2022-12-12T06:03:34.198Z,78.52
2022-12-12T06:06:01.642Z,78.37
2022-12-12T06:08:28.716Z,78.80
2022-12-12T06:10:55.504Z,78.68
2022-12-12T06:13:22.335Z,78.14
2022-12-12T06:15:49.186Z,77.51
2022-12-12T06:18:16.186Z,77.76
2022-12-12T06:20:43.122Z,77.60
2022-12-12T06:23:09.966Z,77.59
2022-12-12T06:25:36.732Z,76.85
2022-12-12T06:28:03.484Z,76.66
2022-12-12T06:30:30.317Z,76.50
2022-12-12T06:32:57.189Z,76.85
2022-12-12T06:35:23.954Z,77.54
2022-12-12T06:37:50.670Z,77.50
2022-12-12T06:40:17.572Z,77.28
2022-12-12T06:42:48.156Z,76.48
2022-12-12T06:45:16.132Z,76.09
2022-12-12T06:47:43.070Z,76.11
2022-12-12T06:50:09.935Z,76.13
2022-12-12T06:52:36.926Z,76.33
2022-12-12T06:55:04.004Z,76.36
2022-12-12T06:57:31.127Z,76.88
2022-12-12T06:59:58.849Z,77.58
2022-12-12T07:02:29.495Z,77.19
2022-12-12T07:04:57.663Z,76.28
2022-12-12T07:07:24.590Z,76.05
2022-12-12T07:09:51.382Z,76.19
2022-12-12T07:12:18.264Z,76.00
2022-12-12T07:14:45.040Z,75.71
2022-12-12T07:17:11.784Z,75.66
2022-12-12T07:19:38.551Z,75.85
2022-12-12T07:22:09.834Z,75.71
2022-12-12T07:24:37.672Z,76.27
2022-12-12T07:27:04.899Z,76.31
2022-12-12T07:29:31.630Z,76.08
2022-12-12T07:31:58.684Z,76.65
2022-12-12T07:34:25.473Z,76.73
2022-12-12T07:36:52.221Z,77.29
2022-12-12T07:39:21.120Z,77.10
2022-12-12T07:41:48.398Z,77.12
2022-12-12T07:44:16.635Z,77.10
2022-12-12T07:46:43.492Z,77.13
2022-12-12T07:49:10.301Z,76.96
2022-12-12T07:51:40.984Z,77.21
2022-12-12T07:54:10.944Z,77.84
2022-12-12T07:56:37.932Z,78.47
2022-12-12T07:59:04.690Z,78.56
2022-12-12T08:01:31.513Z,78.58
2022-12-12T08:03:59.384Z,78.48
2022-12-12T08:06:26.213Z,79.41
2022-12-12T08:08:53.694Z,79.94
2022-12-12T08:11:23.633Z,80.12
2022-12-12T08:13:51.793Z,80.20
2022-12-12T08:16:30.012Z,80.85
2022-12-12T08:18:58.740Z,81.39
2022-12-12T08:21:27.145Z,81.53
2022-12-12T08:24:02.479Z,82.02
2022-12-12T08:26:30.836Z,82.17
2022-12-12T08:28:58.163Z,82.36
2022-12-12T08:31:25.730Z,82.57
2022-12-12T08:33:53.472Z,82.58
2022-12-12T08:36:26.219Z,82.64
2022-12-12T08:38:53.074Z,82.68
2022-12-12T08:41:20.172Z,82.50
2022-12-12T08:43:47.376Z,82.46
2022-12-12T08:46:18.073Z,82.57
2022-12-12T08:48:46.746Z,82.37
2022-12-12T08:51:16.538Z,82.26
2022-12-12T08:53:48.521Z,82.59
2022-12-12T08:56:16.930Z,82.45
2022-12-12T08:58:44.094Z,82.31
2022-12-12T09:01:27.843Z,80.91
2022-12-12T09:03:57.234Z,80.66
2022-12-12T09:06:25.192Z,81.51
2022-12-12T09:08:52.512Z,81.04
2022-12-12T09:11:19.587Z,81.52
2022-12-12T09:13:46.399Z,81.44
2022-12-12T09:16:13.789Z,81.15
2022-12-12T09:18:47.764Z,80.96
2022-12-12T09:21:15.794Z,80.81
2022-12-12T09:23:42.554Z,80.61
2022-12-12T09:26:10.114Z,80.20
2022-12-12T09:28:37.057Z,80.47
2022-12-12T09:31:06.561Z,77.33
2022-12-12T09:33:33.462Z,76.70
2022-12-12T09:36:03.070Z,77.19
2022-12-12T09:38:30.064Z,77.69
2022-12-12T09:41:10.152Z,77.67
2022-12-12T09:43:59.458Z,77.23
2022-12-12T09:46:44.913Z,77.34
2022-12-12T09:49:43.420Z,78.23
2022-12-12T09:52:16.746Z,78.50
2022-12-12T09:54:43.929Z,77.99
2022-12-12T09:57:44.245Z,77.66
2022-12-12T10:00:14.552Z,77.32
2022-12-12T10:02:56.331Z,76.86
2022-12-12T10:06:35.449Z,76.58
2022-12-12T10:09:20.178Z,76.88
2022-12-12T10:11:50.832Z,77.05
2022-12-12T10:14:51.815Z,77.29
2022-12-12T10:17:27.893Z,77.39
2022-12-12T10:19:59.870Z,77.51
2022-12-12T10:23:07.742Z,77.45
2022-12-12T10:25:43.960Z,77.77
2022-12-12T10:28:15.665Z,77.83
2022-12-12T10:31:14.780Z,77.60
2022-12-12T10:34:05.438Z,78.62
2022-12-12T10:36:56.793Z,78.70
2022-12-12T10:39:47.594Z,79.20
2022-12-12T10:42:14.217Z,79.35
2022-12-12T10:44:55.485Z,79.66
2022-12-12T10:47:22.409Z,79.86
2022-12-12T10:49:51.859Z,79.86
2022-12-12T10:52:22.335Z,79.81
2022-12-12T10:54:56.657Z,80.52
2022-12-12T10:57:26.663Z,80.55
2022-12-12T10:59:58.735Z,80.94
2022-12-12T11:02:37.263Z,80.73
2022-12-12T11:05:24.562Z,80.51
2022-12-12T11:08:10.357Z,80.26
2022-12-12T11:10:38.239Z,80.00
2022-12-12T11:13:10.874Z,79.11
2022-12-12T11:15:46.252Z,78.24
2022-12-12T11:18:17.587Z,78.48
2022-12-12T11:21:07.177Z,77.91
2022-12-12T11:23:36.887Z,77.04
2022-12-12T11:26:12.620Z,76.49
2022-12-12T11:28:40.958Z,76.02
2022-12-12T11:31:14.541Z,75.62
2022-12-12T11:33:49.090Z,74.41
2022-12-12T11:36:20.417Z,74.04
2022-12-12T11:38:52.478Z,74.44
2022-12-12T11:41:19.379Z,74.76
2022-12-12T11:43:48.896Z,74.88
2022-12-12T11:46:15.665Z,74.61
2022-12-12T11:48:51.601Z,74.55
2022-12-12T11:51:38.777Z,74.40
2022-12-12T11:54:19.993Z,74.38
2022-12-12T11:56:57.799Z,74.75
2022-12-12T11:59:42.139Z,74.41
2022-12-12T12:02:17.912Z,74.55
2022-12-12T12:05:27.238Z,73.92
2022-12-12T12:08:30.741Z,73.52
2022-12-12T12:11:27.191Z,72.43
2022-12-12T12:14:21.249Z,72.64
2022-12-12T12:17:33.481Z,72.77
2022-12-12T12:20:00.149Z,72.33
2022-12-12T12:22:43.472Z,71.93
2022-12-12T12:25:23.256Z,72.35
2022-12-12T12:28:39.106Z,71.48
2022-12-12T12:31:42.142Z,71.13
2022-12-12T12:34:40.597Z,71.80
2022-12-12T12:37:39.339Z,71.72
2022-12-12T12:40:26.652Z,71.16
2022-12-12T12:43:34.382Z,70.53
2022-12-12T12:46:36.344Z,68.81
2022-12-12T12:49:14.943Z,67.63
2022-12-12T12:52:15.353Z,66.57
2022-12-12T12:54:47.690Z,66.58
2022-12-12T12:57:29.019Z,64.78
2022-12-12T13:00:05.657Z,65.15
2022-12-12T13:03:24.823Z,65.04
2022-12-12T13:06:02.574Z,65.17
2022-12-12T13:08:43.557Z,64.79
2022-12-12T13:11:22.626Z,64.31
2022-12-12T13:13:55.346Z,64.10
2022-12-12T13:16:27.087Z,64.53
2022-12-12T13:19:21.806Z,62.67
2022-12-12T13:22:06.733Z,61.36
2022-12-12T13:25:08.689Z,61.48
2022-12-12T13:27:45.964Z,60.80
2022-12-12T13:30:27.703Z,59.49
2022-12-12T13:33:14.432Z,60.24
2022-12-12T13:35:47.452Z,60.32
2022-12-12T13:38:27.208Z,61.20
2022-12-12T13:41:07.605Z,61.28
2022-12-12T13:43:34.236Z,61.19
2022-12-12T13:46:35.727Z,61.09
2022-12-12T13:49:31.312Z,60.79
2022-12-12T13:52:32.125Z,60.52
2022-12-12T13:55:13.598Z,60.11
2022-12-12T13:58:02.781Z,59.81
2022-12-12T14:00:36.161Z,60.10
2022-12-12T14:03:12.074Z,60.57
2022-12-12T14:05:53.384Z,60.66
2022-12-12T14:08:28.680Z,60.42
2022-12-12T14:11:00.947Z,60.47
2022-12-12T14:13:38.897Z,60.56
2022-12-12T14:16:19.769Z,61.22
2022-12-12T14:18:49.492Z,61.68
2022-12-12T14:21:19.720Z,62.48
2022-12-12T14:23:55.261Z,63.21
2022-12-12T14:26:29.905Z,63.92
2022-12-12T14:29:19.640Z,64.35
2022-12-12T14:31:56.187Z,65.14
2022-12-12T14:34:59.462Z,66.21
2022-12-12T14:38:05.158Z,66.72
2022-12-12T14:40:35.366Z,67.18
2022-12-12T14:43:19.832Z,67.61
2022-12-12T14:45:49.322Z,68.02
2022-12-12T14:48:28.829Z,68.68
2022-12-12T14:51:03.574Z,68.83
2022-12-12T14:53:45.528Z,69.23
2022-12-12T14:56:39.530Z,70.20
2022-12-12T14:59:12.779Z,70.63
2022-12-12T15:01:48.378Z,70.65
2022-12-12T15:04:25.738Z,71.25
2022-12-12T15:06:57.051Z,71.91
2022-12-12T15:09:25.970Z,72.54
2022-12-12T15:11:55.440Z,72.73
2022-12-12T15:14:27.520Z,72.57
2022-12-12T15:17:05.007Z,72.58
2022-12-12T15:19:44.784Z,72.68
2022-12-12T15:22:24.598Z,73.46
2022-12-12T15:24:53.349Z,73.06
2022-12-12T15:27:41.966Z,72.97
2022-12-12T15:30:30.614Z,72.48
2022-12-12T15:32:59.475Z,72.67
2022-12-12T15:35:26.761Z,72.86
2022-12-12T15:38:00.910Z,72.92
2022-12-12T15:40:35.544Z,73.46
2022-12-12T15:43:11.133Z,74.16
2022-12-12T15:45:45.062Z,74.57
2022-12-12T15:48:15.788Z,73.93
2022-12-12T15:50:42.553Z,73.31
2022-12-12T15:53:16.219Z,72.92
2022-12-12T15:55:58.789Z,72.63
2022-12-12T15:58:39.719Z,73.24
2022-12-12T16:01:21.227Z,73.45
2022-12-12T16:04:21.633Z,73.40
2022-12-12T16:06:49.383Z,73.58
2022-12-12T16:09:26.778Z,73.57
2022-12-12T16:11:58.329Z,73.50
2022-12-12T16:14:25.024Z,74.49
2022-12-12T16:17:20.698Z,75.08
2022-12-12T16:19:56.473Z,75.08
2022-12-12T16:22:47.804Z,74.72
2022-12-12T16:25:32.696Z,74.52
2022-12-12T16:28:24.738Z,73.94
2022-12-12T16:30:59.704Z,73.83
2022-12-12T16:33:36.543Z,74.26
2022-12-12T16:36:13.204Z,74.63
2022-12-12T16:38:40.946Z,74.64
2022-12-12T16:41:17.749Z,74.46
2022-12-12T16:43:45.203Z,74.11
2022-12-12T16:46:29.849Z,73.90
2022-12-12T16:49:03.421Z,73.77
2022-12-12T16:51:34.089Z,73.92
2022-12-12T16:54:01.239Z,73.91
2022-12-12T16:56:28.055Z,74.43
2022-12-12T16:58:56.252Z,74.75
2022-12-12T17:01:23.619Z,74.65
2022-12-12T17:03:51.565Z,74.56
2022-12-12T17:06:18.353Z,75.15
2022-12-12T17:08:45.094Z,74.63
2022-12-12T17:11:13.357Z,73.83
2022-12-12T17:13:48.254Z,73.83
2022-12-12T17:16:15.325Z,74.55
2022-12-12T17:18:42.175Z,74.94
2022-12-12T17:21:09.117Z,74.71
2022-12-12T17:23:35.893Z,74.08
2022-12-12T17:26:04.975Z,74.47
2022-12-12T17:28:34.636Z,75.00
2022-12-12T17:31:02.608Z,74.89
2022-12-12T17:33:29.434Z,74.97
2022-12-12T17:36:01.108Z,74.32
2022-12-12T17:38:28.407Z,74.58
2022-12-12T17:40:56.879Z,74.51
2022-12-12T17:43:26.231Z,74.36
2022-12-12T17:46:05.487Z,74.61
2022-12-12T17:48:35.686Z,74.43
2022-12-12T17:51:06.461Z,74.74
2022-12-12T17:53:38.108Z,74.37
2022-12-12T17:56:10.252Z,75.36
2022-12-12T17:58:40.547Z,75.05
2022-12-12T18:01:10.562Z,75.09
2022-12-12T18:03:37.421Z,74.60
2022-12-12T18:06:04.518Z,74.30
2022-12-12T18:08:31.471Z,74.26
2022-12-12T18:10:58.429Z,74.95
2022-12-12T18:13:25.253Z,74.77
2022-12-12T18:15:59.240Z,75.13
2022-12-12T18:18:27.718Z,75.08
2022-12-12T18:20:54.563Z,74.62
2022-12-12T18:23:21.567Z,75.16
2022-12-12T18:25:48.350Z,75.22
2022-12-12T18:28:15.149Z,75.35
2022-12-12T18:30:42.621Z,74.50
2022-12-12T18:33:10.347Z,74.21
2022-12-12T18:35:37.321Z,74.94
2022-12-12T18:38:04.093Z,75.06
2022-12-12T18:40:31.183Z,74.99
2022-12-12T18:42:57.941Z,74.99
2022-12-12T18:45:24.700Z,74.82
2022-12-12T18:47:51.594Z,74.82
2022-12-12T18:50:19.105Z,74.65
2022-12-12T18:52:45.870Z,74.52
2022-12-12T18:55:12.685Z,74.40
2022-12-12T18:57:39.415Z,74.69
2022-12-12T19:00:07.465Z,75.06
2022-12-12T19:02:38.665Z,75.39
2022-12-12T19:05:06.950Z,74.28
2022-12-12T19:07:33.889Z,74.61
2022-12-12T19:10:00.749Z,74.95
2022-12-12T19:12:27.494Z,74.91
2022-12-12T19:17:41.445Z,74.71
2022-12-12T19:20:08.834Z,74.63
2022-12-12T19:22:50.779Z,74.24
2022-12-12T19:25:18.245Z,74.02
2022-12-12T19:27:45.843Z,74.73
2022-12-12T19:30:14.757Z,74.65
2022-12-12T19:32:42.338Z,74.88
2022-12-12T19:35:10.105Z,74.68
2022-12-12T19:37:38.903Z,73.87
2022-12-12T19:40:06.462Z,73.75
2022-12-12T19:42:33.210Z,73.84
2022-12-12T19:45:00.045Z,74.50
2022-12-12T19:47:27.432Z,74.30
2022-12-12T19:49:54.187Z,74.48
2022-12-12T19:52:21.067Z,74.72
2022-12-12T19:54:47.770Z,74.75
2022-12-12T19:57:14.618Z,74.34
2022-12-12T19:59:42.680Z,74.23
2022-12-12T20:02:11.782Z,74.04
2022-12-12T20:04:39.493Z,74.09
2022-12-12T20:07:06.304Z,73.62
2022-12-12T20:09:35.629Z,74.36
2022-12-12T20:12:02.604Z,74.70
2022-12-12T20:14:33.843Z,74.42
2022-12-12T20:17:03.037Z,74.19
2022-12-12T20:19:30.818Z,74.16
2022-12-12T20:22:01.260Z,73.82
2022-12-12T20:24:29.142Z,73.11
2022-12-12T20:26:57.101Z,73.62
2022-12-12T20:29:23.885Z,73.81
2022-12-12T20:31:51.369Z,73.87
2022-12-12T20:34:25.039Z,73.73
2022-12-12T20:36:55.128Z,73.05
2022-12-12T20:39:22.404Z,73.16
2022-12-12T20:41:53.282Z,73.23
2022-12-12T20:44:20.016Z,73.81
2022-12-12T20:46:47.457Z,73.58
2022-12-12T20:49:17.777Z,73.58
2022-12-12T20:52:01.212Z,73.77
2022-12-12T20:54:29.613Z,72.87
2022-12-12T20:56:58.505Z,73.19
2022-12-12T20:59:25.905Z,73.68
2022-12-12T21:01:53.115Z,73.81
2022-12-12T21:04:20.882Z,73.89
2022-12-12T21:06:48.708Z,73.69
2022-12-12T21:09:23.325Z,73.43
2022-12-12T21:11:53.779Z,73.16
2022-12-12T21:14:20.635Z,72.89
2022-12-12T21:16:47.649Z,73.48
2022-12-12T21:19:16.047Z,73.96
2022-12-12T21:21:43.931Z,73.39
2022-12-12T21:24:16.223Z,72.71
2022-12-12T21:26:44.018Z,72.37
2022-12-12T21:29:10.821Z,73.11
2022-12-12T21:31:50.240Z,72.95
2022-12-12T21:34:21.421Z,73.32
2022-12-12T21:36:52.125Z,73.31
2022-12-12T21:39:20.319Z,73.06
2022-12-12T21:41:47.395Z,73.54
2022-12-12T21:44:14.196Z,73.51
2022-12-12T21:46:42.140Z,73.24
2022-12-12T21:49:28.026Z,73.52
2022-12-12T21:52:05.816Z,73.65
2022-12-12T21:54:32.899Z,74.28
2022-12-12T21:57:00.557Z,74.18
2022-12-12T21:59:28.482Z,73.76
2022-12-12T22:02:00.477Z,73.69
2022-12-12T22:04:28.260Z,73.85
2022-12-12T22:06:57.199Z,74.18
2022-12-12T22:09:24.306Z,74.35
2022-12-12T22:11:52.429Z,73.95
2022-12-12T22:14:30.568Z,73.64
2022-12-12T22:16:59.521Z,73.35
2022-12-12T22:19:26.326Z,73.51
2022-12-12T22:21:53.094Z,73.58
2022-12-12T22:24:19.888Z,73.52
2022-12-12T22:26:49.457Z,73.46
2022-12-12T22:29:19.517Z,73.87
2022-12-12T22:31:46.747Z,73.61
2022-12-12T22:34:16.546Z,74.08
2022-12-12T22:36:44.893Z,73.68
2022-12-12T22:39:17.000Z,73.47
2022-12-12T22:41:44.564Z,73.34
2022-12-12T22:44:16.032Z,73.21
2022-12-12T22:46:47.811Z,73.51
2022-12-12T22:49:16.150Z,73.41
2022-12-12T22:51:44.223Z,73.16
2022-12-12T22:54:11.386Z,73.63
2022-12-12T22:56:39.377Z,73.65
2022-12-12T22:59:07.718Z,73.55
2022-12-12T23:01:34.764Z,73.43
2022-12-12T23:04:01.869Z,73.03
2022-12-12T23:06:32.236Z,73.46
2022-12-12T23:09:09.312Z,73.15
2022-12-12T23:11:36.831Z,72.69
2022-12-12T23:14:10.702Z,73.09
2022-12-12T23:16:38.009Z,73.30
2022-12-12T23:19:06.798Z,73.50
2022-12-12T23:21:36.056Z,73.52
2022-12-12T23:24:04.609Z,73.15
2022-12-12T23:26:33.578Z,73.65
2022-12-12T23:29:00.507Z,73.74
2022-12-12T23:31:31.634Z,73.31
2022-12-12T23:34:02.212Z,73.94
2022-12-12T23:36:29.650Z,73.92
2022-12-12T23:38:59.271Z,73.39
2022-12-12T23:41:27.831Z,73.38
2022-12-12T23:43:55.969Z,72.88
2022-12-12T23:46:29.776Z,73.26
2022-12-12T23:49:20.519Z,73.74
2022-12-12T23:51:51.465Z,73.21
2022-12-12T23:54:27.663Z,73.24
2022-12-12T23:56:55.207Z,73.03
2022-12-12T23:59:22.186Z,73.28
